Map

Track Data

SID SEASON NUMBER BASIN SUBBASIN NAME ISO_TIME NATURE LAT LON WMO_WIND WMO_PRES WMO_AGENCY TRACK_TYPE DIST2LAND LANDFALL IFLAG USA_AGENCY USA_ATCF_ID USA_LAT USA_LON USA_RECORD USA_STATUS USA_WIND USA_PRES USA_SSHS USA_R34_NE USA_R34_SE USA_R34_SW USA_R34_NW USA_R50_NE USA_R50_SE USA_R50_SW USA_R50_NW USA_R64_NE USA_R64_SE USA_R64_SW USA_R64_NW USA_POCI USA_ROCI USA_RMW USA_EYE TOKYO_LAT TOKYO_LON TOKYO_GRADE TOKYO_WIND TOKYO_PRES TOKYO_R50_DIR TOKYO_R50_LONG TOKYO_R50_SHORT TOKYO_R30_DIR TOKYO_R30_LONG TOKYO_R30_SHORT TOKYO_LAND CMA_LAT CMA_LON CMA_CAT CMA_WIND CMA_PRES HKO_LAT HKO_LON HKO_CAT HKO_WIND HKO_PRES NEWDELHI_LAT NEWDELHI_LON NEWDELHI_GRADE NEWDELHI_WIND NEWDELHI_PRES NEWDELHI_CI NEWDELHI_DP NEWDELHI_POCI REUNION_LAT REUNION_LON REUNION_TYPE REUNION_WIND REUNION_PRES REUNION_TNUM REUNION_CI REUNION_RMW REUNION_R34_NE REUNION_R34_SE REUNION_R34_SW REUNION_R34_NW REUNION_R50_NE REUNION_R50_SE REUNION_R50_SW REUNION_R50_NW REUNION_R64_NE REUNION_R64_SE REUNION_R64_SW REUNION_R64_NW BOM_LAT BOM_LON BOM_TYPE BOM_WIND BOM_PRES BOM_TNUM BOM_CI BOM_RMW BOM_R34_NE BOM_R34_SE BOM_R34_SW BOM_R34_NW BOM_R50_NE BOM_R50_SE BOM_R50_SW BOM_R50_NW BOM_R64_NE BOM_R64_SE BOM_R64_SW BOM_R64_NW BOM_ROCI BOM_POCI BOM_EYE BOM_POS_METHOD BOM_PRES_METHOD NADI_LAT NADI_LON NADI_CAT NADI_WIND NADI_PRES WELLINGTON_LAT WELLINGTON_LON WELLINGTON_WIND WELLINGTON_PRES DS824_LAT DS824_LON DS824_STAGE DS824_WIND DS824_PRES TD9636_LAT TD9636_LON TD9636_STAGE TD9636_WIND TD9636_PRES TD9635_LAT TD9635_LON TD9635_WIND TD9635_PRES TD9635_ROCI NEUMANN_LAT NEUMANN_LON NEUMANN_CLASS NEUMANN_WIND NEUMANN_PRES MLC_LAT MLC_LON MLC_CLASS MLC_WIND MLC_PRES USA_GUST BOM_GUST BOM_GUST_PER REUNION_GUST REUNION_GUST_PER USA_SEAHGT USA_SEARAD_NE USA_SEARAD_SE USA_SEARAD_SW USA_SEARAD_NW STORM_SPEED STORM_DIR
1857174N26274 1857 5 NA GM NOT_NAMED 1857-06-22 12:00:00 TS 26.2000 -86.5000 main 403 389 _____________O -1 26.2000 -86.5000 TS 35 4 318
1857174N26274 1857 5 NA GM NOT_NAMED 1857-06-22 15:00:00 TS 26.3525 -86.6499 main 380 359 _____________P -1 26.3525 -86.6499 TS 35 4 318
1857174N26274 1857 5 NA GM NOT_NAMED 1857-06-22 18:00:00 TS 26.5000 -86.8000 main 359 344 _____________O -1 26.5000 -86.8000 TS 35 4 317
1857174N26274 1857 5 NA GM NOT_NAMED 1857-06-22 21:00:00 TS 26.6425 -86.9501 main 338 314 _____________P -1 26.6425 -86.9501 TS 37 4 318
1857174N26274 1857 5 NA GM NOT_NAMED 1857-06-23 00:00:00 TS 26.8000 -87.1000 main 314 290 _____________O -1 26.8000 -87.1000 TS 40 4 323
1857174N26274 1857 5 NA GM NOT_NAMED 1857-06-23 03:00:00 TS 27.0000 -87.2500 main 290 261 _____________P -1 27.0000 -87.2500 TS 40 5 326
1857174N26274 1857 5 NA GM NOT_NAMED 1857-06-23 06:00:00 TS 27.2000 -87.4000 main 261 240 _____________O -1 27.2000 -87.4000 TS 40 4 321
1857174N26274 1857 5 NA GM NOT_NAMED 1857-06-23 09:00:00 TS 27.3500 -87.5650 main 231 216 _____________P -1 27.3500 -87.5650 TS 42 4 319
1857174N26274 1857 5 NA GM NOT_NAMED 1857-06-23 12:00:00 TS 27.5000 -87.7000 main 216 192 _____________O -1 27.5000 -87.7000 TS 45 4 332
1857174N26274 1857 5 NA GM NOT_NAMED 1857-06-23 15:00:00 TS 27.7000 -87.7725 main 192 176 _____________P -1 27.7000 -87.7725 TS 45 4 348
1857174N26274 1857 5 NA GM NOT_NAMED 1857-06-23 18:00:00 TS 27.9000 -87.8000 main 176 169 _____________O -1 27.9000 -87.8000 TS 45 4 356
1857174N26274 1857 5 NA GM NOT_NAMED 1857-06-23 21:00:00 TS 28.0575 -87.8001 main 161 154 _____________P -1 28.0575 -87.8001 TS 45 3 0
1857174N26274 1857 5 NA GM NOT_NAMED 1857-06-24 00:00:00 TS 28.2000 -87.8000 main 154 147 _____________O -1 28.2000 -87.8000 TS 45 3 351
1857174N26274 1857 5 NA GM NOT_NAMED 1857-06-24 03:00:00 TS 28.3500 -87.8425 main 140 126 _____________P -1 28.3500 -87.8425 TS 45 3 344
1857174N26274 1857 5 NA GM NOT_NAMED 1857-06-24 06:00:00 TS 28.5000 -87.9000 main 126 120 _____________O -1 28.5000 -87.9000 TS 45 3 354
1857174N26274 1857 5 NA GM NOT_NAMED 1857-06-24 09:00:00 TS 28.6497 -87.8903 main 120 102 _____________P -1 28.6497 -87.8903 TS 45 3 344
1857174N26274 1857 5 NA GM NOT_NAMED 1857-06-24 12:00:00 TS 28.8000 -88.0000 main 102 62 _____________O -1 28.8000 -88.0000 TS 45 5 304
1857174N26274 1857 5 NA GM NOT_NAMED 1857-06-24 15:00:00 TS 28.9427 -88.3825 main 62 9 _____________P -1 28.9427 -88.3825 TS 45 8 291
1857174N26274 1857 5 NA GM NOT_NAMED 1857-06-24 18:00:00 TS 29.1000 -88.9000 main 9 0 _____________O -1 29.1000 -88.9000 TS 45 10 292
1857174N26274 1857 5 NA NA NOT_NAMED 1857-06-24 21:00:00 TS 29.2999 -89.3924 main 0 0 _____________P -1 29.2999 -89.3924 TS 42 10 295
1857174N26274 1857 5 NA GM NOT_NAMED 1857-06-25 00:00:00 TS 29.5000 -89.9000 main 0 0 _____________O -1 29.5000 -89.9000 TS 40 10 292
1857174N26274 1857 5 NA NA NOT_NAMED 1857-06-25 03:00:00 TS 29.6574 -90.4077 main 0 0 _____________P -1 29.6574 -90.4077 TS 37 9 289
1857174N26274 1857 5 NA NA NOT_NAMED 1857-06-25 06:00:00 TS 29.8000 -90.9000 main 0 0 _____________O -1 29.8000 -90.9000 TS 35 9 289
1857174N26274 1857 5 NA NA NOT_NAMED 1857-06-25 09:00:00 TS 29.9477 -91.3597 main 0 0 _____________P -1 29.9477 -91.3597 TS 32 8 291
1857174N26274 1857 5 NA NA NOT_NAMED 1857-06-25 12:00:00 TS 30.1000 -91.8000 main 0 _____________O -1 30.1000 -91.8000 TD 30 8 292

About IBTrACS Database

This database is a web-friendly format of International Best Track Archive for Climate Stewardship (IBTrACS), a global best track data archive curated by NOAA dating back to 1842.

Updated: 2021-10-25